Time;durP1;ratioP1;P1;durP2;ratioP2;P2;SDS_P1;SDS_P2;PMS_P1;PMS_P2;Temp;Humidity;BMP_temperature;BMP_pressure;BME280_temperature;BME280_humidity;BME280_pressure;Samples;Min_cycle;Max_cycle;Signal;HPM_P1;HPM_P2
2023/12/28 15:23:55;;;;;;;6.70;2.83;;;;;;;5.09;100.00;93246.78;5127475;27;20137;-76
2023/12/28 15:26:21;;;;;;;6.22;3.13;;;;;;;5.14;100.00;93243.50;5091680;28;20043;-76
2023/12/28 15:28:49;;;;;;;7.25;3.50;;;;;;;5.14;100.00;93244.28;5108607;28;20031;-76
2023/12/28 15:31:16;;;;;;;7.78;4.38;;;;;;;5.17;100.00;93248.22;5126683;28;20035;-75
2023/12/28 15:33:41;;;;;;;7.32;3.08;;;;;;;5.25;100.00;93245.25;5108657;28;20114;-76
2023/12/28 15:36:07;;;;;;;6.03;3.25;;;;;;;5.18;100.00;93240.19;5125676;28;20130;-76
2023/12/28 15:38:32;;;;;;;9.50;4.35;;;;;;;5.16;100.00;93236.25;5125581;28;20079;-76
2023/12/28 15:40:58;;;;;;;6.90;3.70;;;;;;;5.16;100.00;93223.28;5126980;28;20046;-76
2023/12/28 15:43:24;;;;;;;8.25;3.30;;;;;;;5.16;100.00;93228.47;5125683;28;20024;-76
2023/12/28 15:45:50;;;;;;;12.27;4.00;;;;;;;5.18;100.00;93229.81;5107944;28;20043;-75
2023/12/28 15:48:16;;;;;;;8.32;4.30;;;;;;;5.19;100.00;93226.19;5126534;28;20076;-76
2023/12/28 15:50:41;;;;;;;11.07;4.10;;;;;;;5.20;100.00;93232.97;5126100;28;20406;-76
2023/12/28 15:53:07;;;;;;;10.25;3.78;;;;;;;5.24;100.00;93232.50;5108128;28;20104;-76
2023/12/28 15:55:32;;;;;;;7.13;3.53;;;;;;;5.26;100.00;93231.22;5125061;28;20063;-76
2023/12/28 15:57:58;;;;;;;6.43;2.80;;;;;;;5.25;100.00;93231.47;5125087;28;20039;-76
2023/12/28 16:00:23;;;;;;;4.43;2.58;;;;;;;5.25;100.00;93229.66;5127295;28;20032;-76
2023/12/28 16:02:49;;;;;;;5.32;3.20;;;;;;;5.25;100.00;93221.09;5126497;28;20105;-76
2023/12/28 16:05:15;;;;;;;5.05;2.70;;;;;;;5.25;100.00;93226.28;5125121;28;20487;-74
2023/12/28 16:07:41;;;;;;;5.82;2.65;;;;;;;5.27;100.00;93219.03;5126901;28;20076;-76
2023/12/28 16:10:07;;;;;;;5.47;2.83;;;;;;;5.28;100.00;93223.22;5107976;28;20239;-76
2023/12/28 16:12:34;;;;;;;7.18;2.90;;;;;;;5.28;100.00;93228.41;5126153;28;20126;-77
2023/12/28 16:15:00;;;;;;;7.10;2.90;;;;;;;5.27;100.00;93219.03;5125922;27;20502;-76
2023/12/28 16:17:26;;;;;;;6.82;2.78;;;;;;;5.26;100.00;93220.84;5125877;28;20087;-76
2023/12/28 16:19:52;;;;;;;4.55;2.58;;;;;;;5.25;100.00;93228.88;5124463;28;20088;-76
2023/12/28 16:22:18;;;;;;;5.93;3.20;;;;;;;5.25;100.00;93232.25;5125822;28;20488;-76
2023/12/28 16:24:43;;;;;;;8.05;3.10;;;;;;;5.24;100.00;93240.28;5126326;28;20144;-76
2023/12/28 16:27:09;;;;;;;6.20;3.22;;;;;;;5.24;100.00;93242.88;5107756;28;20490;-76
2023/12/28 16:29:34;;;;;;;6.30;3.20;;;;;;;5.19;100.00;93246.94;5125999;28;20089;-76
2023/12/28 16:32:00;;;;;;;7.90;3.03;;;;;;;5.20;100.00;93245.94;5124366;28;20036;-76
2023/12/28 16:34:30;;;;;;;6.65;3.00;;;;;;;5.17;100.00;93248.22;5116572;27;20135;-76
2023/12/28 16:36:55;;;;;;;6.25;2.90;;;;;;;5.18;100.00;93242.78;5111074;28;20062;-76
2023/12/28 16:39:21;;;;;;;5.72;2.80;;;;;;;5.17;100.00;93249.00;5093977;28;20464;-76
2023/12/28 16:41:47;;;;;;;6.05;2.95;;;;;;;5.19;100.00;93249.53;5095083;28;20030;-79
2023/12/28 16:44:12;;;;;;;5.72;2.80;;;;;;;5.19;100.00;93252.13;5116034;28;20028;-78
2023/12/28 16:46:45;;;;;;;6.85;2.90;;;;;;;5.17;100.00;93236.00;5098859;28;20502;-78
2023/12/28 16:49:12;;;;;;;5.93;2.67;;;;;;;5.18;100.00;93245.38;5099793;28;20119;-78
2023/12/28 16:51:55;;;;;;;5.28;2.80;;;;;;;5.12;100.00;93259.28;5098853;28;20111;-78
2023/12/28 16:54:21;;;;;;;5.95;2.80;;;;;;;5.11;100.00;93249.94;5099914;28;20036;-78
2023/12/28 16:56:46;;;;;;;7.15;2.88;;;;;;;5.05;100.00;93250.09;5096984;28;20074;-78
2023/12/28 16:59:16;;;;;;;9.80;3.30;;;;;;;5.00;100.00;93248.19;5097532;28;20036;-78
2023/12/28 17:01:41;;;;;;;7.57;3.40;;;;;;;4.98;100.00;93260.59;5098198;28;20028;-78
2023/12/28 17:04:40;;;;;;;6.07;3.22;;;;;;;4.98;100.00;93263.19;5098416;28;20047;-78
2023/12/28 17:07:06;;;;;;;4.60;2.78;;;;;;;4.96;100.00;93260.84;5097703;28;20036;-78
2023/12/28 17:09:34;;;;;;;5.72;2.90;;;;;;;4.95;100.00;93253.28;5098199;28;20031;-78
2023/12/28 17:12:21;;;;;;;4.28;2.90;;;;;;;4.95;100.00;93251.47;5097542;28;20036;-78
2023/12/28 17:14:46;;;;;;;5.90;2.88;;;;;;;4.98;100.00;93245.03;5097428;28;20040;-78
2023/12/28 17:17:12;;;;;;;6.78;3.40;;;;;;;4.99;100.00;93246.59;5097711;28;20038;-78
2023/12/28 17:19:38;;;;;;;9.15;3.50;;;;;;;5.00;100.00;93248.19;5099181;28;20120;-79
2023/12/28 17:22:06;;;;;;;8.05;3.70;;;;;;;4.98;100.00;93245.81;5097561;28;20056;-78
2023/12/28 17:28:18;;;;;;;5.78;3.80;;;;;;;4.96;100.00;93249.66;5098044;28;20051;-79
2023/12/28 17:31:01;;;;;;;11.77;4.53;;;;;;;4.95;100.00;93255.88;5097787;28;20036;-78
2023/12/28 17:33:26;;;;;;;9.48;4.95;;;;;;;4.96;100.00;93267.84;5096370;28;20082;-78
2023/12/28 17:36:31;;;;;;;4.40;2.72;;;;;;;4.98;100.00;93263.19;5097313;28;20526;-79
2023/12/28 17:39:06;;;;;;;5.97;3.25;;;;;;;4.97;100.00;93264.22;5097871;28;20061;-78
2023/12/28 17:41:37;;;;;;;5.40;3.60;;;;;;;4.98;100.00;93261.38;5097657;28;20055;-78
2023/12/28 17:44:08;;;;;;;8.00;3.97;;;;;;;4.96;100.00;93257.44;5097223;28;20032;-78
2023/12/28 17:46:43;;;;;;;7.18;3.50;;;;;;;4.96;100.00;93258.22;5096580;28;20032;-78
2023/12/28 17:49:16;;;;;;;10.20;3.95;;;;;;;4.94;100.00;93256.91;5097049;28;20114;-78
2023/12/28 17:51:44;;;;;;;8.23;4.43;;;;;;;4.96;100.00;93262.66;5097099;28;20036;-79
2023/12/28 17:54:15;;;;;;;6.32;3.50;;;;;;;4.95;100.00;93267.06;5096804;28;20028;-78
2023/12/28 17:56:40;;;;;;;7.95;3.83;;;;;;;4.94;100.00;93251.72;5095743;28;20120;-78
2023/12/28 17:59:08;;;;;;;6.03;3.83;;;;;;;4.93;100.00;93255.31;5095873;28;20052;-78
2023/12/28 18:01:33;;;;;;;7.85;4.18;;;;;;;4.92;100.00;93261.53;5095493;28;20040;-77
2023/12/28 18:04:02;;;;;;;6.93;3.38;;;;;;;4.93;100.00;93263.09;5096338;28;20185;-78
2023/12/28 18:06:27;;;;;;;8.25;3.47;;;;;;;4.92;100.00;93258.94;5095894;28;20036;-78
2023/12/28 18:09:21;;;;;;;6.32;3.20;;;;;;;4.90;100.00;93259.16;5095643;28;20059;-79
2023/12/28 18:11:47;;;;;;;6.20;3.90;;;;;;;4.92;100.00;93256.34;5096652;28;20063;-79
2023/12/28 18:14:13;;;;;;;13.07;6.05;;;;;;;4.90;100.00;93263.56;5096306;28;20040;-78
2023/12/28 18:16:39;;;;;;;11.05;5.35;;;;;;;4.91;100.00;93259.94;5094333;28;20048;-79
2023/12/28 18:19:05;;;;;;;9.25;4.60;;;;;;;4.91;100.00;93259.94;5094616;28;20028;-78
2023/12/28 18:21:41;;;;;;;7.43;4.10;;;;;;;4.90;100.00;93259.16;5092839;28;20039;-78
2023/12/28 18:24:07;;;;;;;7.90;4.53;;;;;;;4.89;100.00;93257.59;5094808;28;20039;-78
2023/12/28 18:26:33;;;;;;;8.02;4.38;;;;;;;4.91;100.00;93259.94;5094335;28;20118;-79
2023/12/28 18:28:58;;;;;;;10.05;3.80;;;;;;;4.90;100.00;93263.56;5092815;28;20036;-79
2023/12/28 18:31:24;;;;;;;6.38;3.40;;;;;;;4.90;100.00;93263.56;5093762;28;20036;-79
2023/12/28 18:33:50;;;;;;;6.55;3.85;;;;;;;4.88;100.00;93263.00;5093366;28;20035;-79
2023/12/28 18:36:17;;;;;;;7.40;3.53;;;;;;;4.89;100.00;93260.19;5094162;28;20499;-78
2023/12/28 18:38:45;;;;;;;8.43;4.88;;;;;;;4.89;100.00;93255.00;5092713;28;20059;-78
2023/12/28 18:41:30;;;;;;;6.88;3.70;;;;;;;4.87;100.00;93251.84;5094068;28;20082;-78
2023/12/28 18:43:56;;;;;;;7.85;3.58;;;;;;;4.83;100.00;93250.72;5094259;28;20039;-79
2023/12/28 18:46:21;;;;;;;7.93;3.50;;;;;;;4.86;100.00;93257.25;5093542;28;20487;-78
2023/12/28 18:48:48;;;;;;;6.18;3.40;;;;;;;4.91;100.00;93254.75;5092940;28;20048;-78
2023/12/28 18:51:14;;;;;;;6.97;3.40;;;;;;;4.91;100.00;93245.19;5093795;28;20063;-78
2023/12/28 18:53:43;;;;;;;8.68;4.30;;;;;;;4.90;100.00;93250.59;5094144;28;20515;-78
2023/12/28 18:56:22;;;;;;;8.95;4.57;;;;;;;4.84;100.00;93254.91;5092264;28;20032;-78
2023/12/28 18:58:47;;;;;;;8.00;4.70;;;;;;;4.82;100.00;93262.13;5094101;28;20301;-78
2023/12/28 19:01:14;;;;;;;6.35;4.20;;;;;;;4.81;100.00;93257.94;5093540;28;20081;-78
2023/12/28 19:03:45;;;;;;;7.70;4.20;;;;;;;4.79;100.00;93260.78;5093634;28;20071;-78
2023/12/28 19:06:15;;;;;;;8.60;5.13;;;;;;;4.79;100.00;93265.97;5093883;28;20040;-78
2023/12/28 19:08:47;;;;;;;11.85;6.10;;;;;;;4.78;100.00;93261.81;5092258;28;20036;-78
2023/12/28 19:11:14;;;;;;;10.98;7.18;;;;;;;4.80;100.00;93262.34;5092369;28;20047;-78
2023/12/28 19:13:41;;;;;;;12.57;7.30;;;;;;;4.83;100.00;93257.72;5094158;28;20028;-79
2023/12/28 19:16:06;;;;;;;12.60;6.95;;;;;;;4.83;100.00;93255.13;5093569;28;20063;-78
2023/12/28 19:18:32;;;;;;;11.32;5.90;;;;;;;4.82;100.00;93254.34;5091880;28;20558;-78
2023/12/28 19:20:57;;;;;;;9.27;5.00;;;;;;;4.83;100.00;93248.13;5092951;28;20047;-79
2023/12/28 19:23:23;;;;;;;8.73;4.63;;;;;;;4.84;100.00;93244.53;5092725;28;20071;-79
2023/12/28 19:25:53;;;;;;;6.57;3.60;;;;;;;4.85;100.00;93246.09;5092385;28;20035;-78
2023/12/28 19:28:18;;;;;;;5.97;3.30;;;;;;;5.00;100.00;93250.78;5092159;28;20032;-78
2023/12/28 19:30:44;;;;;;;13.48;5.38;;;;;;;5.05;100.00;93258.66;5093237;28;20088;-78
2023/12/28 19:33:41;;;;;;;7.18;4.32;;;;;;;5.00;100.00;93259.34;5092176;28;20480;-78
2023/12/28 19:36:07;;;;;;;8.05;3.55;;;;;;;4.97;100.00;93264.22;5093389;28;20071;-78
2023/12/28 19:38:33;;;;;;;6.45;3.53;;;;;;;4.94;100.00;93256.91;5091870;28;20032;-78
2023/12/28 19:41:04;;;;;;;5.32;3.15;;;;;;;4.93;100.00;93252.72;5093089;28;20040;-78
2023/12/28 19:43:30;;;;;;;7.85;3.75;;;;;;;4.92;100.00;93256.34;5093509;28;20076;-79
2023/12/28 19:45:55;;;;;;;7.07;4.10;;;;;;;4.92;100.00;93264.13;5092811;28;20060;-78
2023/12/28 19:52:18;;;;;;;7.28;3.55;;;;;;;4.91;100.00;93249.56;5093483;28;20073;-79
2023/12/28 19:54:59;;;;;;;5.57;3.00;;;;;;;4.90;100.00;93242.81;5093941;28;20055;-78
2023/12/28 19:57:25;;;;;;;5.63;3.35;;;;;;;4.89;100.00;93251.63;5093851;28;20036;-78
2023/12/28 19:59:51;;;;;;;7.20;3.80;;;;;;;4.90;100.00;93235.03;5093815;28;20097;-78
2023/12/28 20:02:31;;;;;;;7.00;3.30;;;;;;;4.85;100.00;93229.75;5093684;28;20065;-78
2023/12/28 20:04:56;;;;;;;8.68;2.83;;;;;;;4.87;100.00;93232.91;5093831;28;20048;-78
2023/12/28 20:07:24;;;;;;;8.20;2.70;;;;;;;4.86;100.00;93232.09;5093726;28;20088;-78
2023/12/28 20:09:50;;;;;;;3.90;2.20;;;;;;;4.87;100.00;93232.91;5095739;28;20123;-78
2023/12/28 20:12:34;;;;;;;4.65;2.50;;;;;;;4.87;100.00;93233.69;5096650;28;20111;-78
2023/12/28 20:15:00;;;;;;;7.35;3.08;;;;;;;4.85;100.00;93238.31;5095903;28;20044;-78
2023/12/28 20:17:38;;;;;;;5.18;2.80;;;;;;;4.83;100.00;93239.56;5096083;28;20035;-78
2023/12/28 20:20:05;;;;;;;7.95;2.70;;;;;;;4.85;100.00;93248.69;5078002;28;20411;-78
2023/12/28 20:22:38;;;;;;;8.60;4.00;;;;;;;4.85;100.00;93246.09;5092296;28;20129;-78
2023/12/28 20:25:04;;;;;;;12.27;5.40;;;;;;;4.86;100.00;93244.28;5096107;28;20063;-78
2023/12/28 20:27:30;;;;;;;8.90;3.72;;;;;;;4.85;100.00;93240.13;5104496;27;20125;-78
2023/12/28 20:29:55;;;;;;;8.38;3.45;;;;;;;4.88;100.00;93244.84;5095203;28;20036;-78
2023/12/28 20:32:21;;;;;;;9.60;4.80;;;;;;;4.90;100.00;93242.81;5094857;28;20032;-78
2023/12/28 20:34:52;;;;;;;9.77;4.40;;;;;;;4.88;100.00;93239.66;5096184;28;20032;-78
2023/12/28 20:37:18;;;;;;;4.13;2.20;;;;;;;4.89;100.00;93236.06;5096115;28;20044;-78
2023/12/28 20:39:43;;;;;;;4.35;2.25;;;;;;;4.91;100.00;93237.41;5095513;28;20058;-78
2023/12/28 20:42:59;;;;;;;5.00;2.63;;;;;;;4.92;100.00;93238.97;5093926;28;20029;-78
2023/12/28 20:45:24;;;;;;;3.88;2.20;;;;;;;4.93;100.00;93239.75;5096178;28;20043;-78
2023/12/28 20:48:08;;;;;;;5.13;2.58;;;;;;;4.94;100.00;93246.53;5095940;28;20024;-78
2023/12/28 20:50:34;;;;;;;9.80;3.63;;;;;;;4.94;100.00;93244.72;5095341;28;20036;-77
2023/12/28 20:52:59;;;;;;;9.32;3.67;;;;;;;4.94;100.00;93243.91;5095553;28;20081;-78
2023/12/28 20:55:25;;;;;;;6.57;2.60;;;;;;;4.95;100.00;93242.88;5095897;28;20039;-78
2023/12/28 20:57:50;;;;;;;5.70;2.58;;;;;;;4.95;100.00;93245.47;5094718;28;20035;-78
2023/12/28 21:00:16;;;;;;;7.25;3.20;;;;;;;5.00;100.00;93253.38;5095607;28;20119;-78
2023/12/28 21:03:03;;;;;;;7.85;3.53;;;;;;;4.97;100.00;93246.03;5095750;28;20024;-78
2023/12/28 21:05:29;;;;;;;5.88;3.28;;;;;;;4.94;100.00;93238.72;5095808;28;20036;-78
2023/12/28 21:07:54;;;;;;;8.27;3.50;;;;;;;4.96;100.00;93240.06;5095298;28;20122;-78
2023/12/28 21:10:28;;;;;;;10.73;3.75;;;;;;;4.94;100.00;93238.72;5093842;28;20376;-78
2023/12/28 21:13:01;;;;;;;7.18;3.10;;;;;;;4.92;100.00;93235.59;5094999;28;20035;-78
2023/12/28 21:15:27;;;;;;;10.55;3.50;;;;;;;4.91;100.00;93232.22;5093651;28;20040;-78
2023/12/28 21:18:08;;;;;;;9.52;3.67;;;;;;;4.95;100.00;93240.28;5095223;28;20123;-78
2023/12/28 21:20:33;;;;;;;5.97;3.22;;;;;;;4.95;100.00;93235.09;5095698;28;20039;-79
2023/12/28 21:22:59;;;;;;;8.30;3.90;;;;;;;4.96;100.00;93242.66;5093618;28;20055;-78
2023/12/28 21:25:24;;;;;;;9.27;4.07;;;;;;;4.95;100.00;93235.09;5095303;28;20067;-78
2023/12/28 21:27:50;;;;;;;6.57;3.50;;;;;;;4.96;100.00;93236.69;5094473;28;20518;-78
2023/12/28 21:31:00;;;;;;;6.25;3.38;;;;;;;4.95;100.00;93232.50;5095328;28;20661;-78
2023/12/28 21:33:27;;;;;;;7.07;3.63;;;;;;;4.94;100.00;93231.72;5094631;28;20072;-78
2023/12/28 21:36:11;;;;;;;6.65;3.47;;;;;;;4.95;100.00;93225.53;5094501;28;20080;-79
2023/12/28 21:38:36;;;;;;;5.82;3.38;;;;;;;4.95;100.00;93219.53;5093981;28;20055;-78
2023/12/28 21:41:11;;;;;;;7.50;3.63;;;;;;;4.96;100.00;93228.91;5095443;28;20024;-79
2023/12/28 21:43:39;;;;;;;7.63;3.65;;;;;;;4.95;100.00;93225.53;5094869;28;20032;-78
2023/12/28 21:46:15;;;;;;;6.57;3.28;;;;;;;4.94;100.00;93231.72;5094938;28;20109;-78
2023/12/28 21:48:40;;;;;;;7.35;3.50;;;;;;;4.95;100.00;93229.91;5095124;28;20044;-77
2023/12/28 21:54:32;;;;;;;11.40;4.40;;;;;;;4.94;100.00;93228.34;5095967;28;20655;-79
2023/12/28 21:56:57;;;;;;;8.02;4.00;;;;;;;4.93;100.00;93224.16;5093702;28;20084;-79
2023/12/28 21:59:25;;;;;;;8.77;3.40;;;;;;;4.92;100.00;93220.00;5092758;28;20038;-77
2023/12/28 22:01:54;;;;;;;5.80;2.97;;;;;;;4.96;100.00;93227.09;5060696;28;20054;-79
2023/12/28 22:04:22;;;;;;;5.15;2.80;;;;;;;4.95;100.00;93219.53;5095208;28;20040;-79
2023/12/28 22:07:01;;;;;;;6.03;2.90;;;;;;;4.97;100.00;93220.09;5094089;28;20028;-79
2023/12/28 22:09:27;;;;;;;5.60;2.90;;;;;;;4.97;100.00;93222.69;5094253;28;20044;-79
2023/12/28 22:12:05;;;;;;;6.88;3.00;;;;;;;4.96;100.00;93223.72;5095576;28;20028;-79
2023/12/28 22:14:30;;;;;;;4.50;2.42;;;;;;;4.95;100.00;93224.72;5095055;28;20086;-79
